Observations for MIDDLE WALLOP, United Kingdom (EGVP)

EGVP 180450Z 25007KT 8000 -RADZ BKN009 OVC016 14/12 Q1018 GRN   
EGVP 180350Z AUTO 23004KT 9999 // FEW008/// BKN021/// 14/13 Q1018   
EGVP 180250Z AUTO 26007KT 9999 // BKN019/// 14/12 Q1017 
EGVP 180150Z AUTO 26009KT 9999 // FEW011/// BKN023/// 15/13 Q1017   
EGVP 180050Z AUTO 23005KT 9999 // FEW005/// BKN013/// 15/14 Q1017   
EGVP 172350Z AUTO 23006KT 5000 // BKN003/// BKN010/// 15/15 Q1017   
EGVP 172250Z AUTO 21006KT 6000 // BKN003/// 15/15 Q1017 
EGVP 172150Z AUTO 22006KT 3200 // OVC002/// 15/15 Q1017 
EGVP 172050Z AUTO 22007KT 5000 // OVC002/// 15/14 Q1017 
EGVP 171950Z AUTO 21008KT 6000 // OVC003/// 15/14 Q1016 
EGVP 171850Z AUTO 18008KT 8000 // OVC003/// 15/14 Q1016 
EGVP 171750Z AUTO 20009KT 5000 // OVC003/// 14/14 Q1016 
EGVP 171650Z AUTO 21011KT 8000 // OVC005/// 14/13 Q1016 
EGVP 171550Z AUTO 21012KT 9999 // OVC009/// 15/12 Q1016 
EGVP 171450Z AUTO 21013KT 9999 // OVC012/// 15/12 Q1017 
EGVP 171350Z AUTO 22012KT 9999 // BKN017/// 16/11 Q1017 
EGVP 171250Z AUTO 22011KT 9999 // FEW016/// BKN020/// 15/12 Q1017   
EGVP 171150Z AUTO 22012KT 9999 // BKN024/// SCT034/// 17/10 Q1017   
EGVP 171050Z AUTO 23009KT 9999 // BKN025/// SCT070/// 15/10 Q1017   
EGVP 170950Z AUTO 22006KT 9999 // FEW026/// BKN032/// BKN080/// 16/10 Q1016 
EGVP 170850Z AUTO 25007KT 9999 // FEW021/// SCT039/// BKN100/// 15/09 Q1017 
EGVP 170750Z AUTO 25009KT 9999 // FEW039/// BKN060/// 14/10 Q1017   
EGVP 170650Z AUTO 21005KT 9999 // BKN080/// BKN130/// 13/11 Q1016   
EGVP 170550Z AUTO 23006KT 7000 // OVC070/// 12/10 Q1016 
EGVP 170450Z AUTO 23004KT 7000 // FEW042/// BKN080/// 12/10 Q1016